Willet, South Dakota
Current Conditions -  °F | °C
As of 1:15 AM on Tuesday 21 Oct 2014 (Local Time) from KSPF Reporting Station
Clear Clear  
Wind Chill: 55°   Ceiling: Unl
Heat Index: 55°   Visibility: 10mi
Dew Point: 37°   Wind: 0mph
Humidity: 51%   Direction: NA
Pressure: 29.88"   Gusts: NA
Location:  44.9293°N, 103.753°W
Report Text: KSPF 210715Z AUTO 00000KT 10SM CLR 13/03 A2988 RMK AO2
Loading
Personal Weather Stations






























Interactive Weather Map
Tropical Storm Tracking
New forecast layout! Learn more

10-Day Weather Forecast

Advertisements
Track Severe Weather on mobile